createdAt,value
2019-03-05T00:00:39.856Z,0.00
2019-03-05T00:01:39.838Z,0.00
2019-03-05T00:02:39.817Z,0.00
2019-03-05T00:03:39.800Z,0.00
2019-03-05T00:04:39.779Z,0.00
2019-03-05T00:05:39.760Z,0.00
2019-03-05T00:06:39.740Z,0.00
2019-03-05T00:07:39.715Z,0.00
2019-03-05T00:08:39.703Z,0.00
2019-03-05T00:09:39.682Z,0.00
2019-03-05T00:10:39.666Z,0.00
2019-03-05T00:11:39.645Z,0.00
2019-03-05T00:12:39.624Z,0.00
2019-03-05T00:13:39.608Z,0.00
2019-03-05T00:14:39.591Z,0.00
2019-03-05T00:15:39.569Z,0.00
2019-03-05T00:16:39.546Z,0.00
2019-03-05T00:17:39.531Z,0.00
2019-03-05T00:18:39.510Z,0.00
2019-03-05T00:19:39.493Z,0.00
2019-03-05T00:20:39.474Z,0.00
2019-03-05T00:21:39.453Z,0.00
2019-03-05T00:22:39.434Z,0.00
2019-03-05T00:23:39.408Z,0.00
2019-03-05T00:24:39.403Z,0.00
2019-03-05T00:25:39.376Z,0.00
2019-03-05T00:26:39.358Z,0.00
2019-03-05T00:27:39.343Z,0.00
2019-03-05T00:28:39.318Z,0.00
2019-03-05T00:29:39.300Z,0.00
2019-03-05T00:30:39.280Z,0.00
2019-03-05T00:31:39.263Z,0.00
2019-03-05T00:32:39.244Z,0.00
2019-03-05T00:33:39.224Z,0.00
2019-03-05T00:34:39.205Z,0.00
2019-03-05T00:35:39.187Z,0.00
2019-03-05T00:36:39.170Z,0.00
2019-03-05T00:37:39.148Z,0.00
2019-03-05T00:38:39.127Z,0.00
2019-03-05T00:39:39.114Z,0.00
2019-03-05T00:40:39.091Z,0.00
2019-03-05T00:41:39.071Z,0.00
2019-03-05T00:42:39.053Z,0.00
2019-03-05T00:43:39.038Z,0.00
2019-03-05T00:44:39.012Z,0.00
2019-03-05T00:45:38.996Z,0.00
2019-03-05T00:46:38.975Z,0.00
2019-03-05T00:47:38.956Z,0.00
2019-03-05T00:48:38.940Z,0.00
2019-03-05T00:49:38.917Z,0.00
2019-03-05T00:50:38.899Z,0.00
2019-03-05T00:51:38.891Z,0.00
2019-03-05T00:52:38.860Z,0.00
2019-03-05T00:53:38.841Z,0.00
2019-03-05T00:54:38.822Z,0.00
2019-03-05T00:55:38.805Z,0.00
2019-03-05T00:56:38.783Z,0.00
2019-03-05T00:57:38.763Z,0.00
2019-03-05T00:58:38.745Z,0.00
2019-03-05T00:59:38.727Z,0.00
2019-03-05T01:00:38.707Z,0.00
2019-03-05T01:01:38.688Z,0.00
2019-03-05T01:02:38.669Z,0.00
2019-03-05T01:03:38.650Z,0.00
2019-03-05T01:04:38.632Z,0.00
2019-03-05T01:05:38.693Z,0.00
2019-03-05T01:06:38.592Z,0.00
2019-03-05T01:07:38.575Z,0.00
2019-03-05T01:08:38.553Z,0.00
2019-03-05T01:09:38.533Z,0.00
2019-03-05T01:10:38.516Z,0.00
2019-03-05T01:11:38.498Z,0.00
2019-03-05T01:12:38.476Z,0.00
2019-03-05T01:13:38.458Z,0.00
2019-03-05T01:14:38.439Z,0.00
2019-03-05T01:15:38.421Z,0.00
2019-03-05T01:16:38.398Z,0.00
2019-03-05T01:17:38.383Z,0.00
2019-03-05T01:18:38.368Z,0.00
2019-03-05T01:19:38.343Z,0.00
2019-03-05T01:20:38.323Z,0.00
2019-03-05T01:21:38.305Z,0.00
2019-03-05T01:22:38.286Z,0.00
2019-03-05T01:23:38.266Z,0.00
2019-03-05T01:24:38.245Z,0.00
2019-03-05T01:25:38.226Z,0.00
2019-03-05T01:26:38.210Z,0.00
2019-03-05T01:27:38.189Z,0.00
2019-03-05T01:28:38.174Z,0.00
2019-03-05T01:29:38.152Z,0.00
2019-03-05T01:30:38.135Z,0.00
2019-03-05T01:31:38.113Z,0.00
2019-03-05T01:32:38.096Z,0.00
2019-03-05T01:33:38.072Z,0.00
2019-03-05T01:34:38.058Z,0.00
2019-03-05T01:35:38.037Z,0.00
2019-03-05T01:36:38.017Z,0.00
2019-03-05T01:37:37.999Z,0.00
2019-03-05T01:38:37.991Z,0.00
2019-03-05T01:39:37.961Z,0.00
2019-03-05T01:40:37.942Z,0.00
2019-03-05T01:41:37.923Z,0.00
2019-03-05T01:42:37.903Z,0.00
2019-03-05T01:43:37.889Z,0.00
2019-03-05T01:44:37.868Z,0.00
2019-03-05T01:45:37.847Z,0.00
2019-03-05T01:46:37.830Z,0.00
2019-03-05T01:47:37.807Z,0.00
2019-03-05T01:48:37.792Z,0.00
2019-03-05T01:49:37.770Z,0.00
2019-03-05T01:50:37.751Z,0.00
2019-03-05T01:51:37.731Z,0.00
2019-03-05T01:52:37.710Z,0.00
2019-03-05T01:53:37.696Z,0.00
2019-03-05T01:54:37.676Z,0.00
2019-03-05T01:55:37.654Z,0.00
2019-03-05T01:56:37.640Z,0.00
2019-03-05T01:57:37.618Z,0.00
2019-03-05T01:58:37.595Z,0.00
2019-03-05T01:59:37.576Z,0.00
2019-03-05T02:00:37.558Z,0.00
2019-03-05T02:01:37.540Z,0.00
2019-03-05T02:02:37.521Z,0.00
2019-03-05T02:03:37.502Z,0.00
2019-03-05T02:04:37.489Z,0.00
2019-03-05T02:05:37.463Z,0.00
2019-03-05T02:06:37.442Z,0.00
2019-03-05T02:07:37.425Z,0.00
2019-03-05T02:08:37.407Z,0.00
2019-03-05T02:09:37.388Z,0.00
2019-03-05T02:10:37.367Z,0.00
2019-03-05T02:11:37.351Z,0.00
2019-03-05T02:12:37.330Z,0.00
2019-03-05T02:13:37.314Z,0.00
2019-03-05T02:14:37.290Z,0.00
2019-03-05T02:15:37.271Z,0.00
2019-03-05T02:16:37.256Z,0.00
2019-03-05T02:17:37.234Z,0.00
2019-03-05T02:18:37.217Z,0.00
2019-03-05T02:19:37.194Z,0.00
2019-03-05T02:20:37.183Z,0.00
2019-03-05T02:21:37.163Z,0.00
2019-03-05T02:22:37.140Z,0.00
2019-03-05T02:23:37.119Z,0.00
2019-03-05T02:24:37.103Z,0.00
2019-03-05T02:25:37.083Z,0.00
2019-03-05T02:26:37.062Z,0.00
2019-03-05T02:27:37.043Z,0.00
2019-03-05T02:28:37.023Z,0.00
2019-03-05T02:29:37.003Z,0.00
2019-03-05T02:30:36.985Z,0.00
2019-03-05T02:31:36.966Z,0.00
2019-03-05T02:32:36.949Z,0.00
2019-03-05T02:33:36.927Z,0.00
2019-03-05T02:34:36.910Z,0.00
2019-03-05T02:35:36.889Z,0.00
2019-03-05T02:36:36.872Z,0.00
2019-03-05T02:37:36.852Z,0.00
2019-03-05T02:38:36.836Z,0.00
2019-03-05T02:39:36.829Z,0.00
2019-03-05T02:40:36.789Z,0.00
2019-03-05T02:41:36.775Z,0.00
2019-03-05T02:42:36.755Z,0.00
2019-03-05T02:43:36.734Z,0.00
2019-03-05T02:44:36.718Z,0.00
2019-03-05T02:45:36.700Z,0.00
2019-03-05T02:46:36.679Z,0.00
2019-03-05T02:47:36.662Z,0.00
2019-03-05T02:48:36.641Z,0.00
2019-03-05T02:49:36.630Z,0.00
2019-03-05T02:50:36.605Z,0.00
2019-03-05T02:51:36.582Z,0.00
2019-03-05T02:52:36.565Z,0.00
2019-03-05T02:53:36.547Z,0.00
2019-03-05T02:54:36.530Z,0.00
2019-03-05T02:55:36.507Z,0.00
2019-03-05T02:56:36.489Z,0.00
2019-03-05T02:57:36.473Z,0.00
2019-03-05T02:58:36.450Z,0.00
2019-03-05T02:59:36.434Z,0.00
2019-03-05T03:00:36.414Z,0.00
2019-03-05T03:01:36.407Z,0.00
2019-03-05T03:02:36.375Z,0.00
2019-03-05T03:03:36.362Z,0.00
2019-03-05T03:04:36.336Z,0.00
2019-03-05T03:05:36.318Z,0.00
2019-03-05T03:06:36.299Z,0.00
2019-03-05T03:07:36.282Z,0.00
2019-03-05T03:08:36.271Z,0.00
2019-03-05T03:09:36.241Z,0.00
2019-03-05T03:10:36.233Z,0.00
2019-03-05T03:11:36.200Z,0.00
2019-03-05T03:12:36.186Z,0.00
2019-03-05T03:13:36.163Z,0.00
2019-03-05T03:14:36.144Z,0.00
2019-03-05T03:15:36.131Z,0.00
2019-03-05T03:16:36.105Z,0.00
2019-03-05T03:17:36.090Z,0.00
2019-03-05T03:18:36.068Z,0.00
2019-03-05T03:19:36.049Z,0.00
2019-03-05T03:20:36.037Z,0.00
2019-03-05T03:21:36.011Z,0.00
2019-03-05T03:22:35.991Z,0.00
2019-03-05T03:23:35.971Z,0.00
2019-03-05T03:24:35.957Z,0.00
2019-03-05T03:25:35.937Z,0.00
2019-03-05T03:26:35.915Z,0.00
2019-03-05T03:27:35.895Z,0.00
2019-03-05T03:28:35.879Z,0.00
2019-03-05T03:29:35.859Z,0.00
2019-03-05T03:30:35.848Z,0.00
2019-03-05T03:31:35.819Z,0.00
2019-03-05T03:32:35.802Z,0.00
2019-03-05T03:33:35.789Z,0.00
2019-03-05T03:34:35.796Z,0.00
2019-03-05T03:35:35.741Z,0.00
2019-03-05T03:36:35.723Z,0.00
2019-03-05T03:37:35.757Z,0.00
2019-03-05T03:38:35.724Z,0.00
2019-03-05T03:39:35.663Z,0.00
2019-03-05T03:40:35.657Z,0.00
2019-03-05T03:41:35.627Z,0.00
2019-03-05T03:42:35.608Z,0.00
2019-03-05T03:43:35.590Z,0.00
2019-03-05T03:44:35.569Z,0.00
2019-03-05T03:45:35.552Z,0.00
2019-03-05T03:46:35.534Z,0.00
2019-03-05T03:47:35.514Z,0.00
2019-03-05T03:48:35.493Z,0.00
2019-03-05T03:49:35.475Z,0.00
2019-03-05T03:50:35.457Z,0.00
2019-03-05T03:51:35.435Z,0.00
2019-03-05T03:52:35.415Z,0.00
2019-03-05T03:53:35.407Z,0.00
2019-03-05T03:54:35.376Z,0.00
2019-03-05T03:55:35.357Z,0.00
2019-03-05T03:56:35.344Z,0.00
2019-03-05T03:57:35.335Z,0.00
2019-03-05T03:58:35.309Z,0.00
2019-03-05T03:59:35.279Z,0.00
2019-03-05T04:00:35.263Z,0.00
2019-03-05T04:01:35.248Z,0.00
2019-03-05T04:02:35.223Z,0.00
2019-03-05T04:03:35.219Z,0.00
2019-03-05T04:04:35.187Z,0.00
2019-03-05T04:05:35.166Z,0.00
2019-03-05T04:06:35.147Z,0.00
2019-03-05T04:07:35.127Z,0.00
2019-03-05T04:08:35.109Z,0.00
2019-03-05T04:09:35.093Z,0.00
2019-03-05T04:10:35.069Z,0.00
2019-03-05T04:11:35.052Z,0.00
2019-03-05T04:12:35.033Z,0.00
2019-03-05T04:13:35.027Z,0.00
2019-03-05T04:14:34.995Z,0.00
2019-03-05T04:15:34.978Z,0.00
2019-03-05T04:16:34.957Z,0.00
2019-03-05T04:17:34.937Z,0.00
2019-03-05T04:18:34.930Z,0.00
2019-03-05T04:19:34.912Z,0.00
2019-03-05T04:20:34.882Z,0.00
2019-03-05T04:21:34.867Z,0.00
2019-03-05T04:22:34.839Z,0.00
2019-03-05T04:23:34.824Z,0.00
2019-03-05T04:24:34.802Z,0.00
2019-03-05T04:25:34.787Z,0.00
2019-03-05T04:26:34.763Z,0.00
2019-03-05T04:27:34.744Z,0.00
2019-03-05T04:28:34.727Z,0.00
2019-03-05T04:29:34.720Z,0.00
2019-03-05T04:30:34.687Z,0.00
2019-03-05T04:31:34.669Z,0.00
2019-03-05T04:32:34.667Z,0.00
2019-03-05T04:33:34.633Z,0.00
2019-03-05T04:36:14.967Z,0.00
2019-03-05T04:37:14.931Z,0.00
2019-03-05T04:39:07.815Z,0.00
2019-03-05T04:40:07.777Z,0.00
2019-03-05T04:42:00.647Z,0.00
2019-03-05T04:43:00.603Z,0.00
2019-03-05T04:44:53.468Z,0.00
2019-03-05T04:45:53.435Z,0.00
2019-03-05T04:47:54.440Z,0.00
2019-03-05T04:48:46.293Z,0.00
2019-03-05T04:50:39.136Z,0.00
2019-03-05T04:51:39.100Z,0.00
2019-03-05T04:53:31.959Z,0.00
2019-03-05T04:54:31.932Z,0.00
2019-03-05T04:55:31.911Z,0.00
2019-03-05T04:56:31.892Z,0.00
2019-03-05T04:57:31.869Z,0.00
2019-03-05T04:58:31.852Z,0.00
2019-03-05T04:59:31.833Z,0.00
2019-03-05T05:00:31.824Z,0.00
2019-03-05T05:01:31.795Z,0.00
2019-03-05T05:02:31.775Z,0.00
2019-03-05T05:03:31.756Z,0.00
2019-03-05T05:04:31.737Z,0.00
2019-03-05T05:05:31.723Z,0.00
2019-03-05T05:06:31.700Z,0.00
2019-03-05T05:07:31.678Z,0.00
2019-03-05T05:08:31.659Z,0.00
2019-03-05T05:09:31.639Z,0.00
2019-03-05T05:10:31.621Z,0.00
2019-03-05T05:11:31.601Z,0.00
2019-03-05T05:12:31.581Z,0.00
2019-03-05T05:13:31.563Z,0.00
2019-03-05T05:14:31.547Z,0.00
2019-03-05T05:15:31.528Z,0.00
2019-03-05T05:16:31.509Z,0.00
2019-03-05T05:17:31.484Z,0.00
2019-03-05T05:18:31.469Z,0.00
2019-03-05T05:19:31.446Z,0.00
2019-03-05T05:20:31.426Z,0.00
2019-03-05T05:21:31.408Z,0.00
2019-03-05T05:22:31.390Z,0.00
2019-03-05T05:23:31.368Z,0.00
2019-03-05T05:24:31.353Z,0.00
2019-03-05T05:25:31.331Z,0.00
2019-03-05T05:26:31.338Z,0.00
2019-03-05T05:27:31.290Z,0.00
2019-03-05T05:28:31.272Z,0.00
2019-03-05T05:29:31.252Z,0.00
2019-03-05T05:30:31.234Z,0.00
2019-03-05T05:31:31.221Z,0.00
2019-03-05T05:32:31.197Z,0.00
2019-03-05T05:33:31.176Z,0.00
2019-03-05T05:34:31.158Z,0.00
2019-03-05T05:35:31.144Z,0.00
2019-03-05T05:36:31.117Z,0.00
2019-03-05T05:37:31.111Z,0.00
2019-03-05T05:38:31.080Z,0.00
2019-03-05T05:39:31.060Z,0.00
2019-03-05T05:40:31.048Z,0.00
2019-03-05T05:41:31.022Z,0.00
2019-03-05T05:42:31.003Z,0.00
2019-03-05T05:43:30.983Z,0.00
2019-03-05T05:44:30.965Z,0.00
2019-03-05T05:45:30.955Z,0.00
2019-03-05T05:46:30.928Z,0.00
2019-03-05T05:47:30.907Z,0.00
2019-03-05T05:48:30.887Z,0.00
2019-03-05T05:49:30.872Z,0.00
2019-03-05T05:50:30.850Z,0.00
2019-03-05T05:51:30.827Z,0.00
2019-03-05T05:52:30.809Z,0.00
2019-03-05T05:53:30.790Z,0.00
2019-03-05T05:54:30.773Z,0.00
2019-03-05T05:55:30.755Z,0.00
2019-03-05T05:56:30.732Z,0.00
2019-03-05T05:57:30.712Z,0.00
2019-03-05T05:58:30.693Z,0.00
2019-03-05T05:59:30.673Z,0.00
2019-03-05T06:00:30.654Z,0.00
2019-03-05T06:01:30.635Z,0.00
2019-03-05T06:02:30.616Z,0.00
2019-03-05T06:03:30.602Z,0.00
2019-03-05T06:04:30.576Z,0.00
2019-03-05T06:05:30.560Z,0.00
2019-03-05T06:06:30.541Z,0.00
2019-03-05T06:07:30.517Z,0.00
2019-03-05T06:08:30.496Z,0.00
2019-03-05T06:09:30.478Z,0.00
2019-03-05T06:10:30.461Z,0.00
2019-03-05T06:11:30.439Z,0.00
2019-03-05T06:12:30.424Z,0.00
2019-03-05T06:13:30.405Z,0.00
2019-03-05T06:14:30.388Z,0.00
2019-03-05T06:15:30.363Z,0.00
2019-03-05T06:16:30.343Z,0.00
2019-03-05T06:17:30.325Z,0.00
2019-03-05T06:18:30.301Z,0.00
2019-03-05T06:19:30.294Z,0.00
2019-03-05T06:20:30.269Z,0.00
2019-03-05T06:21:30.246Z,0.00
2019-03-05T06:22:30.228Z,0.00
2019-03-05T06:23:30.209Z,0.00
2019-03-05T06:24:30.194Z,0.00
2019-03-05T06:25:30.172Z,0.00
2019-03-05T06:26:30.152Z,0.00
2019-03-05T06:27:30.135Z,0.00
2019-03-05T06:28:30.111Z,0.00
2019-03-05T06:29:30.095Z,0.00
2019-03-05T06:30:30.074Z,5.63
2019-03-05T06:31:30.056Z,5.63
2019-03-05T06:32:30.035Z,5.63
2019-03-05T06:33:30.016Z,5.63
2019-03-05T06:34:29.996Z,5.63
2019-03-05T06:35:29.979Z,5.63
2019-03-05T06:36:29.957Z,5.63
2019-03-05T06:37:29.939Z,5.63
2019-03-05T06:38:29.920Z,0.00
2019-03-05T06:39:29.900Z,0.00
2019-03-05T06:40:29.879Z,5.63
2019-03-05T06:41:29.860Z,5.63
2019-03-05T06:42:29.842Z,5.63
2019-03-05T06:43:29.819Z,5.63
2019-03-05T06:44:29.802Z,5.63
2019-03-05T06:45:29.785Z,0.00
2019-03-05T06:46:29.764Z,0.00
2019-03-05T06:47:29.743Z,0.00
2019-03-05T06:48:29.736Z,5.63
2019-03-05T06:49:29.707Z,5.63
2019-03-05T06:50:29.688Z,5.63
2019-03-05T06:51:29.668Z,5.63
2019-03-05T06:52:29.652Z,5.63
2019-03-05T06:53:29.632Z,0.00
2019-03-05T06:54:29.610Z,0.00
2019-03-05T06:55:29.592Z,0.00
2019-03-05T06:56:29.571Z,0.00
2019-03-05T06:57:29.553Z,0.00
2019-03-05T06:58:29.532Z,0.00
2019-03-05T06:59:29.512Z,0.00
2019-03-05T07:00:29.494Z,0.00
2019-03-05T07:01:29.478Z,0.00
2019-03-05T07:02:29.455Z,0.00
2019-03-05T07:03:29.429Z,5.63
2019-03-05T07:04:29.415Z,5.63
2019-03-05T07:05:29.390Z,5.63
2019-03-05T07:06:29.399Z,5.63
2019-03-05T07:07:29.372Z,5.63
2019-03-05T07:08:29.339Z,5.63
2019-03-05T07:09:29.316Z,5.63
2019-03-05T07:10:29.299Z,5.63
2019-03-05T07:11:29.273Z,5.63
2019-03-05T07:12:29.262Z,5.63
2019-03-05T07:13:29.239Z,5.63
2019-03-05T07:14:29.222Z,5.63
2019-03-05T07:15:29.201Z,5.63
2019-03-05T07:16:29.197Z,5.63
2019-03-05T07:17:29.161Z,5.63
2019-03-05T07:18:29.144Z,5.63
2019-03-05T07:19:29.119Z,5.63
2019-03-05T07:20:29.120Z,5.63
2019-03-05T07:21:29.084Z,5.63
2019-03-05T07:22:29.089Z,5.63
2019-03-05T07:23:29.046Z,5.63
2019-03-05T07:24:29.028Z,5.63
2019-03-05T07:25:29.008Z,5.63
2019-03-05T07:26:29.014Z,5.63
2019-03-05T07:27:28.968Z,5.63
2019-03-05T07:28:28.959Z,5.63
2019-03-05T07:29:28.930Z,5.63
2019-03-05T07:30:28.911Z,5.63
2019-03-05T07:31:28.891Z,5.63
2019-03-05T07:32:28.871Z,5.63
2019-03-05T07:33:28.853Z,5.63
2019-03-05T07:34:28.833Z,5.63
2019-03-05T07:35:28.814Z,5.63
2019-03-05T07:36:28.793Z,5.63
2019-03-05T07:37:28.776Z,5.63
2019-03-05T07:38:28.759Z,5.63
2019-03-05T07:39:28.738Z,5.63
2019-03-05T07:40:28.716Z,5.63
2019-03-05T07:41:28.703Z,5.63
2019-03-05T07:42:28.678Z,5.63
2019-03-05T07:43:36.408Z,5.63
2019-03-05T07:44:28.641Z,5.63
2019-03-05T07:45:28.622Z,5.63
2019-03-05T07:46:28.606Z,5.63
2019-03-05T07:47:28.583Z,5.63
2019-03-05T07:48:29.723Z,11.25
2019-03-05T07:49:28.542Z,11.25
2019-03-05T07:50:28.525Z,11.25
2019-03-05T07:51:28.506Z,16.88
2019-03-05T07:52:28.561Z,16.88
2019-03-05T07:53:36.724Z,16.88
2019-03-05T07:55:22.055Z,28.13
2019-03-05T07:56:22.021Z,28.13
2019-03-05T07:58:14.895Z,33.75
2019-03-05T07:59:14.863Z,33.75
2019-03-05T08:01:07.722Z,33.75
2019-03-05T08:02:07.694Z,33.75
2019-03-05T08:04:00.560Z,33.75
2019-03-05T08:05:00.539Z,33.75
2019-03-05T08:06:54.370Z,39.38
2019-03-05T08:07:54.344Z,39.38
2019-03-05T08:09:47.234Z,39.38
2019-03-05T08:10:47.174Z,39.38
2019-03-05T08:12:40.047Z,39.38
2019-03-05T08:13:40.013Z,39.38
2019-03-05T08:15:32.872Z,50.63
2019-03-05T08:16:32.843Z,56.25
2019-03-05T08:18:26.212Z,61.88
2019-03-05T08:19:26.176Z,67.50
2019-03-05T08:21:19.035Z,84.38
2019-03-05T08:22:19.010Z,84.38
2019-03-05T08:24:11.879Z,61.88
2019-03-05T08:25:11.838Z,61.88
2019-03-05T08:26:11.824Z,56.25
2019-03-05T08:27:11.804Z,56.25
2019-03-05T08:28:11.787Z,50.63
2019-03-05T08:29:11.791Z,50.63
2019-03-05T08:30:14.680Z,45.00
2019-03-05T08:31:11.731Z,45.00
2019-03-05T08:32:11.922Z,39.38
2019-03-05T08:33:12.002Z,45.00
2019-03-05T08:34:11.676Z,45.00
2019-03-05T08:35:11.655Z,45.00
2019-03-05T08:36:11.653Z,50.63
2019-03-05T08:37:13.433Z,56.25
2019-03-05T08:38:11.601Z,61.88
2019-03-05T08:39:11.583Z,61.88
2019-03-05T08:40:11.565Z,61.88
2019-03-05T08:41:11.546Z,61.88
2019-03-05T08:42:11.527Z,56.25
2019-03-05T08:43:11.529Z,56.25
2019-03-05T08:44:11.491Z,56.25
2019-03-05T08:45:11.474Z,56.25
2019-03-05T08:46:11.457Z,56.25
2019-03-05T08:47:11.435Z,56.25
2019-03-05T08:48:11.416Z,56.25
2019-03-05T08:49:11.399Z,56.25
2019-03-05T08:50:11.378Z,56.25
2019-03-05T08:51:11.364Z,56.25
2019-03-05T08:52:11.347Z,50.63
2019-03-05T08:53:11.330Z,50.63
2019-03-05T08:54:11.309Z,50.63
2019-03-05T08:55:11.293Z,50.63
2019-03-05T08:56:11.269Z,45.00
2019-03-05T08:57:11.298Z,45.00
2019-03-05T08:58:11.233Z,45.00
2019-03-05T08:59:11.217Z,45.00
2019-03-05T09:00:11.211Z,45.00
2019-03-05T09:01:11.177Z,45.00
2019-03-05T09:02:11.175Z,39.38
2019-03-05T09:03:11.143Z,39.38
2019-03-05T09:04:11.126Z,33.75
2019-03-05T09:05:11.112Z,39.38
2019-03-05T09:06:11.089Z,45.00
2019-03-05T09:07:11.111Z,50.63
2019-03-05T09:08:11.050Z,56.25
2019-03-05T09:09:11.029Z,56.25
2019-03-05T09:10:11.007Z,61.88
2019-03-05T09:11:11.011Z,56.25
2019-03-05T09:12:10.975Z,56.25
2019-03-05T09:13:10.960Z,61.88
2019-03-05T09:14:10.939Z,61.88
2019-03-05T09:15:10.913Z,56.25
2019-03-05T09:16:10.904Z,50.63
2019-03-05T09:17:10.883Z,45.00
2019-03-05T09:18:10.866Z,45.00
2019-03-05T09:19:10.848Z,39.38
2019-03-05T09:20:10.828Z,45.00
2019-03-05T09:21:10.812Z,45.00
2019-03-05T09:22:10.782Z,50.63
2019-03-05T09:23:10.772Z,45.00
2019-03-05T09:24:10.790Z,45.00
2019-03-05T09:25:10.739Z,45.00
2019-03-05T09:26:10.753Z,45.00
2019-03-05T09:27:10.704Z,50.63
2019-03-05T09:28:10.681Z,50.63
2019-03-05T09:29:10.664Z,45.00
2019-03-05T09:30:10.646Z,39.38
2019-03-05T09:31:10.628Z,33.75
2019-03-05T09:32:10.608Z,33.75
2019-03-05T09:33:10.590Z,33.75
2019-03-05T09:34:10.573Z,39.38
2019-03-05T09:35:10.559Z,39.38
2019-03-05T09:36:10.536Z,39.38
2019-03-05T09:37:10.517Z,33.75
2019-03-05T09:38:10.500Z,33.75
2019-03-05T09:39:10.481Z,33.75
2019-03-05T09:40:10.467Z,28.13
2019-03-05T09:41:10.445Z,28.13
2019-03-05T09:42:10.445Z,22.50
2019-03-05T09:43:10.402Z,28.13
2019-03-05T09:44:10.409Z,33.75
2019-03-05T09:45:10.371Z,33.75
2019-03-05T09:46:10.352Z,33.75
2019-03-05T09:47:10.334Z,33.75
2019-03-05T09:48:10.314Z,28.13
2019-03-05T09:49:10.298Z,22.50
2019-03-05T09:50:10.278Z,28.13
2019-03-05T09:51:10.255Z,28.13
2019-03-05T09:52:10.241Z,28.13
2019-03-05T09:53:10.225Z,28.13
2019-03-05T09:54:10.206Z,28.13
2019-03-05T09:55:10.188Z,33.75
2019-03-05T09:56:10.179Z,33.75
2019-03-05T09:57:10.150Z,28.13
2019-03-05T09:58:10.131Z,28.13
2019-03-05T09:59:10.120Z,22.50
2019-03-05T10:00:10.095Z,28.13
2019-03-05T10:01:10.076Z,28.13
2019-03-05T10:02:10.097Z,22.50
2019-03-05T10:03:10.041Z,16.88
2019-03-05T10:04:10.022Z,16.88
2019-03-05T10:05:10.003Z,16.88
2019-03-05T10:06:09.983Z,16.88
2019-03-05T10:07:18.581Z,11.25
2019-03-05T10:08:09.948Z,11.25
2019-03-05T10:09:09.927Z,11.25
2019-03-05T10:10:09.907Z,11.25
2019-03-05T10:11:09.890Z,11.25
2019-03-05T10:12:09.866Z,11.25
2019-03-05T10:13:09.858Z,11.25
2019-03-05T10:14:09.834Z,11.25
2019-03-05T10:15:09.815Z,11.25
2019-03-05T10:16:09.816Z,11.25
2019-03-05T10:17:09.794Z,11.25
2019-03-05T10:18:12.993Z,11.25
2019-03-05T10:19:09.762Z,11.25
2019-03-05T10:20:09.719Z,11.25
2019-03-05T10:21:11.826Z,11.25
2019-03-05T10:22:09.680Z,11.25
2019-03-05T10:23:09.663Z,11.25
2019-03-05T10:24:10.682Z,11.25
2019-03-05T10:25:09.625Z,11.25
2019-03-05T10:26:10.573Z,11.25
2019-03-05T10:27:09.585Z,11.25
2019-03-05T10:28:09.566Z,11.25
2019-03-05T10:29:09.547Z,11.25
2019-03-05T10:30:09.528Z,16.88
2019-03-05T10:31:09.501Z,16.88
2019-03-05T10:32:09.500Z,16.88
2019-03-05T10:33:09.480Z,22.50
2019-03-05T10:34:09.455Z,28.13
2019-03-05T10:35:09.443Z,22.50
2019-03-05T10:36:09.411Z,22.50
2019-03-05T10:37:12.641Z,22.50
2019-03-05T10:38:09.372Z,22.50
2019-03-05T10:39:09.353Z,22.50
2019-03-05T10:40:09.334Z,16.88
2019-03-05T10:41:09.318Z,16.88
2019-03-05T10:42:09.293Z,11.25
2019-03-05T10:43:09.292Z,11.25
2019-03-05T10:44:09.258Z,11.25
2019-03-05T10:45:09.238Z,11.25
2019-03-05T10:46:09.224Z,11.25
2019-03-05T10:47:09.201Z,11.25
2019-03-05T10:48:09.181Z,11.25
2019-03-05T10:49:09.160Z,11.25
2019-03-05T10:50:15.190Z,16.88
2019-03-05T10:54:32.147Z,16.88
2019-03-05T10:57:45.253Z,16.88
2019-03-05T10:58:45.220Z,16.88
2019-03-05T11:00:39.466Z,16.88
2019-03-05T11:01:46.660Z,16.88
2019-03-05T11:02:39.427Z,11.25
2019-03-05T11:11:52.650Z,22.50
2019-03-05T11:12:59.773Z,16.88
2019-03-05T11:14:45.703Z,16.88
2019-03-05T11:15:45.464Z,16.88
2019-03-05T11:16:45.648Z,16.88
2019-03-05T11:17:45.459Z,16.88
2019-03-05T11:18:49.085Z,16.88
2019-03-05T11:19:55.816Z,16.88
2019-03-05T11:21:39.165Z,22.50
2019-03-05T11:22:39.180Z,22.50
2019-03-05T11:24:32.005Z,28.13
2019-03-05T11:25:32.024Z,28.13
2019-03-05T11:26:32.061Z,22.50
2019-03-05T11:27:31.972Z,22.50
2019-03-05T11:28:32.524Z,22.50
2019-03-05T11:29:31.860Z,22.50
2019-03-05T11:30:36.230Z,22.50
2019-03-05T11:32:24.730Z,22.50
2019-03-05T11:33:24.772Z,22.50
2019-03-05T11:35:17.800Z,22.50
2019-03-05T11:36:17.722Z,22.50
2019-03-05T11:38:11.129Z,22.50
2019-03-05T11:39:11.130Z,22.50
2019-03-05T11:41:03.914Z,22.50
2019-03-05T11:42:03.954Z,22.50
2019-03-05T11:43:57.793Z,16.88
2019-03-05T11:45:07.195Z,16.88
2019-03-05T11:46:50.562Z,16.88
2019-03-05T11:47:50.537Z,22.50
2019-03-05T11:49:43.418Z,22.50
2019-03-05T11:50:43.359Z,22.50
2019-03-05T11:52:36.260Z,22.50
2019-03-05T11:53:36.218Z,22.50
2019-03-05T11:55:29.287Z,22.50
2019-03-05T11:56:29.029Z,16.88
2019-03-05T11:57:29.000Z,11.25
2019-03-05T11:58:29.208Z,11.25
2019-03-05T11:59:28.982Z,11.25
2019-03-05T12:00:28.942Z,16.88
2019-03-05T12:01:28.920Z,11.25
2019-03-05T12:02:28.904Z,11.25
2019-03-05T12:03:29.033Z,11.25
2019-03-05T12:06:34.724Z,16.88
2019-03-05T12:07:34.687Z,16.88
2019-03-05T12:09:27.551Z,11.25
2019-03-05T12:10:27.519Z,11.25
2019-03-05T12:12:20.385Z,11.25
2019-03-05T12:13:20.363Z,11.25
2019-03-05T12:15:13.232Z,11.25
2019-03-05T12:16:13.230Z,11.25
2019-03-05T12:18:09.086Z,11.25
2019-03-05T12:20:34.777Z,11.25
2019-03-05T12:21:41.967Z,11.25
2019-03-05T12:23:27.597Z,16.88
2019-03-05T12:24:27.612Z,16.88
2019-03-05T12:26:20.453Z,11.25
2019-03-05T12:27:20.450Z,11.25
2019-03-05T12:29:13.366Z,16.88
2019-03-05T12:30:13.261Z,11.25
2019-03-05T12:32:06.207Z,16.88
2019-03-05T12:33:06.667Z,22.50
2019-03-05T12:34:59.019Z,22.50
2019-03-05T12:35:59.044Z,16.88
2019-03-05T12:37:51.883Z,22.50
2019-03-05T12:38:51.872Z,22.50
2019-03-05T12:40:44.830Z,11.25
2019-03-05T12:41:44.767Z,11.25
2019-03-05T12:43:38.523Z,11.25
2019-03-05T12:44:38.517Z,11.25
2019-03-05T12:45:38.494Z,11.25
2019-03-05T12:46:38.465Z,16.88
2019-03-05T12:47:38.444Z,11.25
2019-03-05T12:48:40.223Z,11.25
2019-03-05T12:49:38.827Z,11.25
2019-03-05T12:50:38.429Z,11.25
2019-03-05T12:51:38.355Z,16.88
2019-03-05T12:52:38.379Z,22.50
2019-03-05T12:53:38.492Z,22.50
2019-03-05T12:54:38.290Z,22.50
2019-03-05T12:55:38.295Z,16.88
2019-03-05T13:02:28.777Z,22.50
2019-03-05T13:05:14.045Z,22.50
2019-03-05T13:08:07.934Z,22.50
2019-03-05T13:17:56.670Z,22.50
2019-03-05T13:23:09.683Z,16.88
2019-03-05T13:24:16.691Z,16.88
2019-03-05T13:26:07.686Z,22.50
2019-03-05T13:27:11.572Z,22.50
2019-03-05T13:29:22.448Z,22.50
2019-03-05T13:30:33.670Z,22.50
2019-03-05T13:37:20.372Z,22.50
2019-03-05T13:40:51.222Z,11.25
2019-03-05T13:41:41.200Z,11.25
2019-03-05T13:44:15.937Z,5.63
2019-03-05T16:47:21.451Z,0.00
2019-03-05T16:48:29.554Z,0.00
2019-03-05T16:50:14.239Z,0.00
2019-03-05T16:51:14.266Z,0.00
2019-03-05T16:53:07.134Z,0.00
2019-03-05T16:54:07.049Z,0.00
2019-03-05T16:55:07.039Z,0.00
2019-03-05T16:56:07.013Z,0.00
2019-03-05T16:57:06.994Z,0.00
2019-03-05T16:58:06.978Z,0.00
2019-03-05T16:59:06.970Z,0.00
2019-03-05T17:00:08.561Z,0.00
2019-03-05T17:01:06.919Z,0.00
2019-03-05T17:02:07.767Z,0.00
2019-03-05T17:03:06.893Z,0.00
2019-03-05T17:04:06.862Z,0.00
2019-03-05T17:05:06.840Z,0.00
2019-03-05T17:06:06.837Z,0.00
2019-03-05T17:07:06.814Z,0.00
2019-03-05T17:08:06.790Z,0.00
2019-03-05T17:09:06.767Z,0.00
2019-03-05T17:10:06.750Z,0.00
2019-03-05T17:11:06.729Z,0.00
2019-03-05T17:12:06.713Z,0.00
2019-03-05T17:13:06.693Z,0.00
2019-03-05T17:14:06.672Z,0.00
2019-03-05T17:15:06.653Z,0.00
2019-03-05T17:16:06.634Z,0.00
2019-03-05T17:17:06.615Z,0.00
2019-03-05T17:18:06.596Z,0.00
2019-03-05T17:19:06.576Z,0.00
2019-03-05T17:20:06.559Z,0.00
2019-03-05T17:21:06.535Z,0.00
2019-03-05T17:22:06.521Z,0.00
2019-03-05T17:23:06.501Z,0.00
2019-03-05T17:24:06.485Z,0.00
2019-03-05T17:25:06.472Z,0.00
2019-03-05T17:26:06.443Z,0.00
2019-03-05T17:27:06.440Z,0.00
2019-03-05T17:28:06.402Z,0.00
2019-03-05T17:29:06.385Z,0.00
2019-03-05T17:30:06.366Z,0.00
2019-03-05T17:31:06.358Z,0.00
2019-03-05T17:32:06.329Z,0.00
2019-03-05T17:33:06.310Z,0.00
2019-03-05T17:34:06.307Z,0.00
2019-03-05T17:35:06.270Z,0.00
2019-03-05T17:36:06.250Z,0.00
2019-03-05T17:37:06.234Z,0.00
2019-03-05T17:38:06.213Z,0.00
2019-03-05T17:39:06.194Z,0.00
2019-03-05T17:40:06.178Z,0.00
2019-03-05T17:41:06.155Z,0.00
2019-03-05T17:42:06.134Z,0.00
2019-03-05T17:43:06.114Z,0.00
2019-03-05T17:44:06.101Z,0.00